createdAt,value
2023-03-12T00:01:22.901Z,42.71
2023-03-12T00:03:56.290Z,42.74
2023-03-12T00:06:29.191Z,42.79
2023-03-12T00:09:02.159Z,42.73
2023-03-12T00:11:35.326Z,42.80
2023-03-12T00:14:09.337Z,42.73
2023-03-12T00:16:42.314Z,42.75
2023-03-12T00:19:29.813Z,42.81
2023-03-12T00:22:03.389Z,42.86
2023-03-12T00:24:37.344Z,42.87
2023-03-12T00:27:11.360Z,42.89
2023-03-12T00:29:45.290Z,42.95
2023-03-12T00:32:18.240Z,42.96
2023-03-12T00:34:51.219Z,43.02
2023-03-12T00:37:24.267Z,43.02
2023-03-12T00:39:57.218Z,43.05
2023-03-12T00:42:30.214Z,43.08
2023-03-12T00:45:03.282Z,43.05
2023-03-12T00:47:36.210Z,43.13
2023-03-12T00:50:09.304Z,43.17
2023-03-12T00:52:42.413Z,43.08
2023-03-12T00:55:16.394Z,43.22
2023-03-12T00:57:50.279Z,43.21
2023-03-12T01:00:23.241Z,43.30
2023-03-12T01:02:56.504Z,43.33
2023-03-12T01:05:30.217Z,43.31
2023-03-12T01:08:03.116Z,43.24
2023-03-12T01:10:36.243Z,43.25
2023-03-12T01:13:23.050Z,43.28
2023-03-12T01:15:56.319Z,43.28
2023-03-12T01:18:28.981Z,43.41
2023-03-12T01:21:06.154Z,43.45
2023-03-12T01:23:39.086Z,43.35
2023-03-12T01:26:12.182Z,43.31
2023-03-12T01:28:45.334Z,43.39
2023-03-12T01:31:18.325Z,43.33
2023-03-12T01:33:51.334Z,43.31
2023-03-12T01:36:24.135Z,43.27
2023-03-12T01:38:57.013Z,43.33
2023-03-12T01:41:30.273Z,43.38
2023-03-12T01:44:03.326Z,43.42
2023-03-12T01:46:36.312Z,43.49
2023-03-12T01:49:09.518Z,43.37
2023-03-12T01:51:43.448Z,43.33
2023-03-12T01:54:16.158Z,43.39
2023-03-12T01:56:49.017Z,43.33
2023-03-12T01:59:22.317Z,43.29
2023-03-12T02:01:55.392Z,43.27
2023-03-12T02:04:28.065Z,43.28
2023-03-12T02:07:01.140Z,43.27
2023-03-12T02:09:34.315Z,43.25
2023-03-12T02:12:07.195Z,43.28
2023-03-12T02:14:40.225Z,43.24
2023-03-12T02:17:13.375Z,43.24
2023-03-12T02:19:46.406Z,43.24
2023-03-12T02:22:19.160Z,43.22
2023-03-12T02:24:52.585Z,43.26
2023-03-12T02:27:26.129Z,43.27
2023-03-12T02:29:59.441Z,43.24
2023-03-12T02:32:32.424Z,43.24
2023-03-12T02:35:05.624Z,43.28
2023-03-12T02:37:39.385Z,43.28
2023-03-12T02:40:12.468Z,43.35
2023-03-12T02:42:45.463Z,43.37
2023-03-12T02:45:18.213Z,43.44
2023-03-12T02:47:51.125Z,43.44
2023-03-12T02:50:24.377Z,43.45
2023-03-12T02:52:57.436Z,43.49
2023-03-12T02:55:30.406Z,43.47
2023-03-12T02:58:03.359Z,43.42
2023-03-12T03:00:36.401Z,43.48
2023-03-12T03:03:09.395Z,43.45
2023-03-12T03:05:42.438Z,43.38
2023-03-12T03:08:15.540Z,43.44
2023-03-12T03:10:48.498Z,43.43
2023-03-12T03:13:21.423Z,43.45
2023-03-12T03:15:54.480Z,43.45
2023-03-12T03:18:27.424Z,43.50
2023-03-12T03:21:00.515Z,43.49
2023-03-12T03:23:33.147Z,43.49
2023-03-12T03:26:06.676Z,43.52
2023-03-12T03:28:40.430Z,43.49
2023-03-12T03:31:13.570Z,43.49
2023-03-12T03:33:46.554Z,43.48
2023-03-12T03:36:19.513Z,43.51
2023-03-12T03:38:52.568Z,43.47
2023-03-12T03:41:25.861Z,43.50
2023-03-12T03:43:59.736Z,43.46
2023-03-12T03:46:33.676Z,43.41
2023-03-12T03:49:06.621Z,43.42
2023-03-12T03:51:39.214Z,43.43
2023-03-12T03:54:12.694Z,43.41
2023-03-12T03:56:46.483Z,43.40
2023-03-12T03:59:19.459Z,43.40
2023-03-12T04:01:52.317Z,43.39
2023-03-12T04:04:25.627Z,43.39
2023-03-12T04:06:58.514Z,43.42
2023-03-12T04:09:31.359Z,43.42
2023-03-12T04:12:04.264Z,43.43
2023-03-12T04:14:37.584Z,43.41
2023-03-12T04:17:10.374Z,43.42
2023-03-12T04:19:43.515Z,43.43
2023-03-12T04:22:16.238Z,43.41
2023-03-12T04:24:49.326Z,43.41
2023-03-12T04:27:22.585Z,43.40
2023-03-12T04:29:55.584Z,43.42
2023-03-12T04:32:28.441Z,43.40
2023-03-12T04:35:01.804Z,43.40
2023-03-12T04:37:35.557Z,43.39
2023-03-12T04:40:08.667Z,43.37
2023-03-12T04:42:41.263Z,43.38
2023-03-12T04:45:14.386Z,43.40
2023-03-12T04:47:47.275Z,43.38
2023-03-12T04:50:20.324Z,43.33
2023-03-12T04:52:53.324Z,43.37
2023-03-12T04:55:26.687Z,43.38
2023-03-12T04:57:59.631Z,43.34
2023-03-12T05:00:32.592Z,43.29
2023-03-12T05:03:05.725Z,43.32
2023-03-12T05:05:38.681Z,43.34
2023-03-12T05:08:11.438Z,43.31
2023-03-12T05:10:44.508Z,43.31
2023-03-12T05:13:17.588Z,43.34
2023-03-12T05:15:50.333Z,43.40
2023-03-12T05:18:23.336Z,43.45
2023-03-12T05:20:56.664Z,43.39
2023-03-12T05:23:29.700Z,43.38
2023-03-12T05:26:02.494Z,43.42
2023-03-12T05:28:35.652Z,43.37
2023-03-12T05:31:08.725Z,43.39
2023-03-12T05:33:41.341Z,43.36
2023-03-12T05:36:14.815Z,43.39
2023-03-12T05:38:47.633Z,43.41
2023-03-12T05:41:20.358Z,43.39
2023-03-12T05:43:53.385Z,43.36
2023-03-12T05:46:26.717Z,43.30
2023-03-12T05:48:59.589Z,43.30
2023-03-12T05:51:32.501Z,43.27
2023-03-12T05:54:05.609Z,43.28
2023-03-12T05:56:38.475Z,43.27
2023-03-12T05:59:11.496Z,43.22
2023-03-12T06:01:44.411Z,43.20
2023-03-12T06:04:17.674Z,43.18
2023-03-12T06:06:50.423Z,43.10
2023-03-12T06:09:23.692Z,43.25
2023-03-12T06:11:56.753Z,43.29
2023-03-12T06:14:29.520Z,43.26
2023-03-12T06:17:02.587Z,43.23
2023-03-12T06:19:35.516Z,43.28
2023-03-12T06:22:08.585Z,43.24
2023-03-12T06:24:41.419Z,43.23
2023-03-12T06:27:14.720Z,43.20
2023-03-12T06:29:47.726Z,43.19
2023-03-12T06:32:20.491Z,43.33
2023-03-12T06:34:53.987Z,43.18
2023-03-12T06:37:28.576Z,43.16
2023-03-12T06:40:01.579Z,43.06
2023-03-12T06:42:34.545Z,42.98
2023-03-12T06:45:08.046Z,42.89
2023-03-12T06:47:42.738Z,42.86
2023-03-12T06:50:15.742Z,42.46
2023-03-12T06:52:48.763Z,42.47
2023-03-12T06:55:21.608Z,42.52
2023-03-12T06:57:54.946Z,42.52
2023-03-12T07:00:28.773Z,42.46
2023-03-12T07:03:01.881Z,42.46
2023-03-12T07:05:34.636Z,42.55
2023-03-12T07:08:07.542Z,42.51
2023-03-12T07:10:40.689Z,42.44
2023-03-12T07:13:13.868Z,42.27
2023-03-12T07:15:46.728Z,42.32
2023-03-12T07:18:19.502Z,42.40
2023-03-12T07:20:52.519Z,42.36
2023-03-12T07:23:25.857Z,42.34
2023-03-12T07:25:58.861Z,42.35
2023-03-12T07:28:31.900Z,42.35
2023-03-12T07:31:04.857Z,42.32
2023-03-12T07:33:37.735Z,42.25
2023-03-12T07:36:10.985Z,42.28
2023-03-12T07:38:43.905Z,42.27
2023-03-12T07:41:16.962Z,42.24
2023-03-12T07:43:49.870Z,42.22
2023-03-12T07:46:22.606Z,42.27
2023-03-12T07:48:55.642Z,42.27
2023-03-12T07:51:28.980Z,42.27
2023-03-12T07:54:02.147Z,42.14
2023-03-12T07:56:36.264Z,42.12
2023-03-12T07:59:09.135Z,42.21
2023-03-12T08:01:44.594Z,42.12
2023-03-12T08:04:29.057Z,42.10
2023-03-12T08:07:02.059Z,42.07
2023-03-12T08:09:34.940Z,42.07
2023-03-12T08:12:07.776Z,42.14
2023-03-12T08:14:44.104Z,42.07
2023-03-12T08:17:16.876Z,42.08
2023-03-12T08:19:49.875Z,42.02
2023-03-12T08:22:22.646Z,42.04
2023-03-12T08:24:55.862Z,42.05
2023-03-12T08:27:28.736Z,42.00
2023-03-12T08:30:01.751Z,41.99
2023-03-12T08:32:35.153Z,42.05
2023-03-12T08:35:07.923Z,42.05
2023-03-12T08:37:40.757Z,41.99
2023-03-12T08:40:13.798Z,41.95
2023-03-12T08:42:46.969Z,41.96
2023-03-12T08:45:19.932Z,42.01
2023-03-12T08:47:52.651Z,41.94
2023-03-12T08:50:25.710Z,41.92
2023-03-12T08:52:59.002Z,42.02
2023-03-12T08:55:31.861Z,41.92
2023-03-12T08:58:05.037Z,41.97
2023-03-12T09:00:37.873Z,42.00
2023-03-12T09:03:10.886Z,41.97
2023-03-12T09:05:43.955Z,42.03
2023-03-12T09:08:16.945Z,42.01
2023-03-12T09:10:49.978Z,41.94
2023-03-12T09:13:22.673Z,41.89
2023-03-12T09:15:55.669Z,41.93
2023-03-12T09:18:28.994Z,41.87
2023-03-12T09:21:02.079Z,41.87
2023-03-12T09:23:34.882Z,41.88
2023-03-12T09:26:09.791Z,41.82
2023-03-12T09:28:43.056Z,41.85
2023-03-12T09:31:15.753Z,41.91
2023-03-12T09:33:48.730Z,41.87
2023-03-12T09:36:21.725Z,41.83
2023-03-12T09:38:54.845Z,41.86
2023-03-12T09:41:27.916Z,41.87
2023-03-12T09:44:00.940Z,41.89
2023-03-12T09:46:33.995Z,41.99
2023-03-12T09:49:07.101Z,41.99
2023-03-12T09:51:39.855Z,42.04
2023-03-12T09:54:12.744Z,41.84
2023-03-12T09:56:46.056Z,41.96
2023-03-12T09:59:18.761Z,41.93
2023-03-12T10:01:51.757Z,41.91
2023-03-12T10:04:25.006Z,41.90
2023-03-12T10:06:57.761Z,41.84
2023-03-12T10:09:31.076Z,41.97
2023-03-12T10:12:04.151Z,41.89
2023-03-12T10:14:37.033Z,41.96
2023-03-12T10:17:10.065Z,41.93
2023-03-12T10:19:42.995Z,41.97
2023-03-12T10:22:15.781Z,41.97
2023-03-12T10:24:49.005Z,42.00
2023-03-12T10:27:21.811Z,41.92
2023-03-12T10:29:54.938Z,41.96
2023-03-12T10:32:28.419Z,41.88
2023-03-12T10:35:01.868Z,42.03
2023-03-12T10:37:35.137Z,41.89
2023-03-12T10:40:08.036Z,42.00
2023-03-12T10:42:40.960Z,42.05
2023-03-12T10:45:14.129Z,41.98
2023-03-12T10:47:47.012Z,42.04
2023-03-12T10:50:19.833Z,42.00
2023-03-12T10:52:52.962Z,42.08
2023-03-12T10:55:30.796Z,41.97
2023-03-12T10:58:08.157Z,41.95
2023-03-12T11:00:40.823Z,41.92
2023-03-12T11:03:14.187Z,41.93
2023-03-12T11:05:47.200Z,41.86
2023-03-12T11:08:20.144Z,41.89
2023-03-12T11:10:53.027Z,41.90
2023-03-12T11:13:26.039Z,41.84
2023-03-12T11:15:59.211Z,41.86
2023-03-12T11:18:32.094Z,41.84
2023-03-12T11:21:05.178Z,41.78
2023-03-12T11:23:38.157Z,41.76
2023-03-12T11:26:10.865Z,41.80
2023-03-12T11:28:44.164Z,41.74
2023-03-12T11:31:17.047Z,41.63
2023-03-12T11:33:50.270Z,41.68
2023-03-12T11:36:22.886Z,41.63
2023-03-12T11:38:55.888Z,41.65
2023-03-12T11:41:28.968Z,41.51
2023-03-12T11:44:02.259Z,41.54
2023-03-12T11:46:35.153Z,41.61
2023-03-12T11:49:08.202Z,41.54
2023-03-12T11:51:41.019Z,41.58
2023-03-12T11:54:14.424Z,41.59
2023-03-12T11:56:48.425Z,41.57
2023-03-12T11:59:22.273Z,41.56
2023-03-12T12:01:55.379Z,41.55
2023-03-12T12:04:28.217Z,41.56
2023-03-12T12:07:00.928Z,41.51
2023-03-12T12:09:34.080Z,41.55
2023-03-12T12:12:07.118Z,41.52
2023-03-12T12:14:40.106Z,41.53
2023-03-12T12:17:13.080Z,41.50
2023-03-12T12:19:46.145Z,41.50
2023-03-12T12:22:19.114Z,41.51
2023-03-12T12:24:52.319Z,41.52
2023-03-12T12:27:25.648Z,41.53
2023-03-12T12:29:59.304Z,41.53
2023-03-12T12:32:32.229Z,41.51
2023-03-12T12:35:04.992Z,41.50
2023-03-12T12:37:38.065Z,41.42
2023-03-12T12:40:11.108Z,41.35
2023-03-12T12:42:44.482Z,41.38
2023-03-12T12:45:18.027Z,41.38
2023-03-12T12:47:51.127Z,41.41
2023-03-12T12:50:24.386Z,41.40
2023-03-12T12:52:57.309Z,41.40
2023-03-12T12:55:30.481Z,41.50
2023-03-12T12:58:04.256Z,41.62
2023-03-12T13:00:37.373Z,41.71
2023-03-12T13:03:10.340Z,41.77
2023-03-12T13:05:47.122Z,41.77
2023-03-12T13:08:20.174Z,41.75
2023-03-12T13:10:58.103Z,41.79
2023-03-12T13:13:27.541Z,41.83
2023-03-12T13:15:59.542Z,41.82
2023-03-12T13:18:32.417Z,41.87
2023-03-12T13:21:05.354Z,41.83
2023-03-12T13:23:38.376Z,41.90
2023-03-12T13:26:11.341Z,41.95
2023-03-12T13:28:44.582Z,41.90
2023-03-12T13:31:17.183Z,41.95
2023-03-12T13:33:50.214Z,41.95
2023-03-12T13:36:23.106Z,42.00
2023-03-12T13:38:56.423Z,41.94
2023-03-12T13:41:31.503Z,41.99
2023-03-12T13:44:02.168Z,41.98
2023-03-12T13:46:35.392Z,41.99
2023-03-12T13:49:08.116Z,42.03
2023-03-12T13:51:41.602Z,42.08
2023-03-12T13:54:15.323Z,42.18
2023-03-12T13:56:48.209Z,42.21
2023-03-12T13:59:21.201Z,42.28
2023-03-12T14:01:54.550Z,42.28
2023-03-12T14:04:27.248Z,42.25
2023-03-12T14:07:00.605Z,42.17
2023-03-12T14:09:34.430Z,42.22
2023-03-12T14:12:07.250Z,42.21
2023-03-12T14:14:40.343Z,42.22
2023-03-12T14:17:13.310Z,42.23
2023-03-12T14:19:46.931Z,42.23
2023-03-12T14:22:20.143Z,42.22
2023-03-12T14:24:53.328Z,41.93
2023-03-12T14:27:26.283Z,41.77
2023-03-12T14:29:59.424Z,41.86
2023-03-12T14:32:32.686Z,41.90
2023-03-12T14:35:05.164Z,42.01
2023-03-12T14:37:38.299Z,42.09
2023-03-12T14:40:11.178Z,42.13
2023-03-12T14:42:44.563Z,42.23
2023-03-12T14:45:17.195Z,42.28
2023-03-12T14:47:50.386Z,42.36
2023-03-12T14:50:23.219Z,42.34
2023-03-12T14:52:56.320Z,42.37
2023-03-12T14:55:29.426Z,42.37
2023-03-12T14:58:02.553Z,42.43
2023-03-12T15:00:35.519Z,42.42
2023-03-12T15:03:08.269Z,42.45
2023-03-12T15:05:41.351Z,42.47
2023-03-12T15:08:14.188Z,42.45
2023-03-12T15:10:47.348Z,42.45
2023-03-12T15:13:20.340Z,42.45
2023-03-12T15:15:53.521Z,41.81
2023-03-12T15:18:26.797Z,39.75
2023-03-12T15:20:59.545Z,39.27
2023-03-12T15:23:32.416Z,39.60
2023-03-12T15:26:05.613Z,39.39
2023-03-12T15:28:38.383Z,39.21
2023-03-12T15:31:11.347Z,39.04
2023-03-12T15:33:44.370Z,38.68
2023-03-12T15:36:23.344Z,39.14
2023-03-12T15:38:56.646Z,38.89
2023-03-12T15:41:29.436Z,39.20
2023-03-12T15:44:02.354Z,39.06
2023-03-12T15:46:35.762Z,38.90
2023-03-12T15:49:08.421Z,38.90
2023-03-12T15:51:41.364Z,38.96
2023-03-12T15:54:14.292Z,38.78
2023-03-12T15:56:51.450Z,38.49
2023-03-12T15:59:24.450Z,38.14
2023-03-12T16:01:57.754Z,38.20
2023-03-12T16:04:30.695Z,38.07
2023-03-12T16:07:03.514Z,38.20
2023-03-12T16:09:36.744Z,38.17
2023-03-12T16:12:10.590Z,38.00
2023-03-12T16:14:43.797Z,37.94
2023-03-12T16:17:17.320Z,37.83
2023-03-12T16:19:50.557Z,37.85
2023-03-12T16:22:23.575Z,37.58
2023-03-12T16:24:56.666Z,38.84
2023-03-12T16:27:32.965Z,39.27
2023-03-12T16:30:02.717Z,39.54
2023-03-12T16:32:35.886Z,39.71
2023-03-12T16:35:09.818Z,39.88
2023-03-12T16:37:43.562Z,40.03
2023-03-12T16:40:30.817Z,40.08
2023-03-12T16:42:49.385Z,40.27
2023-03-12T16:45:22.465Z,40.28
2023-03-12T16:47:56.837Z,40.40
2023-03-12T16:50:29.489Z,40.48
2023-03-12T16:53:02.591Z,40.53
2023-03-12T16:55:35.530Z,40.63
2023-03-12T16:58:08.647Z,40.69
2023-03-12T17:00:41.592Z,40.75
2023-03-12T17:03:14.388Z,40.79
2023-03-12T17:05:47.452Z,40.82
2023-03-12T17:08:20.669Z,40.78
2023-03-12T17:10:53.687Z,40.86
2023-03-12T17:13:26.581Z,40.85
2023-03-12T17:16:00.004Z,40.84
2023-03-12T17:18:32.693Z,40.91
2023-03-12T17:21:05.461Z,40.91
2023-03-12T17:23:38.772Z,40.91
2023-03-12T17:26:11.387Z,40.90
2023-03-12T17:28:44.803Z,40.83
2023-03-12T17:31:17.494Z,40.80
2023-03-12T17:33:50.674Z,40.70
2023-03-12T17:36:23.804Z,40.62
2023-03-12T17:38:56.735Z,40.50
2023-03-12T17:41:29.549Z,40.67
2023-03-12T17:44:02.785Z,40.73
2023-03-12T17:46:35.670Z,40.75
2023-03-12T17:49:08.856Z,40.85
2023-03-12T17:51:42.849Z,40.87
2023-03-12T17:54:15.716Z,40.90
2023-03-12T17:56:48.452Z,40.87
2023-03-12T17:59:21.716Z,40.97
2023-03-12T18:01:54.756Z,41.00
2023-03-12T18:04:27.901Z,41.03
2023-03-12T18:07:00.874Z,41.07
2023-03-12T18:09:33.611Z,41.08
2023-03-12T18:12:06.706Z,41.17
2023-03-12T18:14:39.633Z,41.19
2023-03-12T18:17:12.595Z,41.18
2023-03-12T18:19:45.913Z,41.26
2023-03-12T18:22:19.639Z,41.30
2023-03-12T18:24:53.026Z,41.27
2023-03-12T18:27:26.969Z,41.36
2023-03-12T18:30:00.809Z,41.44
2023-03-12T18:32:33.915Z,41.40
2023-03-12T18:35:06.801Z,41.39
2023-03-12T18:37:42.835Z,41.44
2023-03-12T18:40:15.536Z,41.45
2023-03-12T18:42:48.808Z,41.50
2023-03-12T18:45:21.815Z,41.44
2023-03-12T18:47:54.849Z,41.46
2023-03-12T18:50:27.804Z,41.49
2023-03-12T18:53:00.589Z,41.51
2023-03-12T18:55:33.581Z,41.53
2023-03-12T18:58:06.998Z,41.46
2023-03-12T19:00:40.901Z,41.57
2023-03-12T19:03:13.947Z,41.56
2023-03-12T19:05:46.897Z,41.61
2023-03-12T19:08:19.608Z,41.56
2023-03-12T19:10:52.876Z,41.65
2023-03-12T19:13:25.863Z,41.60
2023-03-12T19:15:59.116Z,41.55
2023-03-12T19:18:32.800Z,41.62
2023-03-12T19:21:05.800Z,41.62
2023-03-12T19:23:38.634Z,41.62
2023-03-12T19:26:11.819Z,41.57
2023-03-12T19:28:44.830Z,41.59
2023-03-12T19:31:17.660Z,41.65
2023-03-12T19:33:50.936Z,41.65
2023-03-12T19:36:23.623Z,41.60
2023-03-12T19:38:56.746Z,41.60
2023-03-12T19:41:29.779Z,41.63
2023-03-12T19:44:02.684Z,41.61
2023-03-12T19:46:35.962Z,41.66
2023-03-12T19:49:09.059Z,41.65
2023-03-12T19:51:42.965Z,41.69
2023-03-12T19:54:15.826Z,41.70
2023-03-12T19:56:48.952Z,41.67
2023-03-12T19:59:21.633Z,41.60
2023-03-12T20:01:55.080Z,41.71
2023-03-12T20:04:28.031Z,41.71
2023-03-12T20:07:01.050Z,41.63
2023-03-12T20:09:33.754Z,41.72
2023-03-12T20:12:07.131Z,41.67
2023-03-12T20:14:42.844Z,41.69
2023-03-12T20:17:14.005Z,41.69
2023-03-12T20:19:47.018Z,41.70
2023-03-12T20:22:19.955Z,41.68
2023-03-12T20:24:53.079Z,41.68
2023-03-12T20:27:26.057Z,41.74
2023-03-12T20:29:59.096Z,41.67
2023-03-12T20:32:32.165Z,41.76
2023-03-12T20:35:04.867Z,41.77
2023-03-12T20:37:37.675Z,41.78
2023-03-12T20:40:10.845Z,41.77
2023-03-12T20:42:44.004Z,41.76
2023-03-12T20:45:16.985Z,41.72
2023-03-12T20:47:50.024Z,41.86
2023-03-12T20:50:22.792Z,41.81
2023-03-12T20:52:56.122Z,41.85
2023-03-12T20:55:31.695Z,41.79
2023-03-12T20:58:04.983Z,41.82
2023-03-12T21:00:37.992Z,41.75
2023-03-12T21:03:10.858Z,41.77
2023-03-12T21:05:43.930Z,41.79
2023-03-12T21:08:16.746Z,41.74
2023-03-12T21:10:50.218Z,41.75
2023-03-12T21:13:24.026Z,41.79
2023-03-12T21:15:57.063Z,41.80
2023-03-12T21:18:29.830Z,41.78
2023-03-12T21:21:03.087Z,41.75
2023-03-12T21:23:36.264Z,41.77
2023-03-12T21:26:09.802Z,41.78
2023-03-12T21:28:42.037Z,41.75
2023-03-12T21:31:20.744Z,41.71
2023-03-12T21:33:54.671Z,41.73
2023-03-12T21:36:27.807Z,41.80
2023-03-12T21:39:00.891Z,41.76
2023-03-12T21:41:34.121Z,41.78
2023-03-12T21:44:07.082Z,41.82
2023-03-12T21:46:40.020Z,41.79
2023-03-12T21:49:13.180Z,41.75
2023-03-12T21:51:45.909Z,41.78
2023-03-12T21:54:19.064Z,41.80
2023-03-12T21:56:55.077Z,41.76
2023-03-12T21:59:28.118Z,41.83
2023-03-12T22:02:01.297Z,41.82
2023-03-12T22:04:35.087Z,41.76
2023-03-12T22:07:08.154Z,41.79
2023-03-12T22:09:41.192Z,41.82
2023-03-12T22:12:14.269Z,41.83
2023-03-12T22:14:47.324Z,41.80
2023-03-12T22:17:21.329Z,41.85
2023-03-12T22:19:55.137Z,41.76
2023-03-12T22:22:28.150Z,41.58
2023-03-12T22:25:01.321Z,41.41
2023-03-12T22:27:35.137Z,41.53
2023-03-12T22:30:08.256Z,41.58
2023-03-12T22:32:41.268Z,41.58
2023-03-12T22:35:15.259Z,41.69
2023-03-12T22:37:48.398Z,41.67
2023-03-12T22:40:22.184Z,41.68
2023-03-12T22:42:55.256Z,41.75
2023-03-12T22:45:28.181Z,41.87
2023-03-12T22:48:01.161Z,41.80
2023-03-12T22:50:35.185Z,41.83
2023-03-12T22:53:08.262Z,41.83
2023-03-12T22:55:41.215Z,41.89
2023-03-12T22:58:14.402Z,41.88
2023-03-12T23:00:48.308Z,41.86
2023-03-12T23:03:21.225Z,41.87
2023-03-12T23:05:54.266Z,41.88
2023-03-12T23:08:27.464Z,41.91
2023-03-12T23:11:01.082Z,41.95
2023-03-12T23:13:34.246Z,41.97
2023-03-12T23:16:07.307Z,41.99
2023-03-12T23:18:40.195Z,42.04
2023-03-12T23:21:13.123Z,42.22
2023-03-12T23:23:46.308Z,42.24
2023-03-12T23:26:19.091Z,42.25
2023-03-12T23:28:52.492Z,42.29
2023-03-12T23:31:26.296Z,42.24
2023-03-12T23:33:59.249Z,42.32
2023-03-12T23:36:32.170Z,42.26
2023-03-12T23:39:05.479Z,42.30
2023-03-12T23:41:39.238Z,42.32
2023-03-12T23:44:12.315Z,42.28
2023-03-12T23:46:45.338Z,42.31
2023-03-12T23:49:18.312Z,42.26
2023-03-12T23:51:51.283Z,42.32
2023-03-12T23:54:24.151Z,42.43
2023-03-12T23:56:56.984Z,42.42
2023-03-12T23:59:30.431Z,42.39
